createdAt,value
2019-05-11T00:01:59.885Z,10.36
2019-05-11T00:04:29.007Z,10.36
2019-05-11T00:06:58.128Z,10.37
2019-05-11T00:09:27.295Z,10.34
2019-05-11T00:11:56.443Z,10.33
2019-05-11T00:14:25.636Z,10.34
2019-05-11T00:16:54.743Z,10.35
2019-05-11T00:19:23.864Z,10.37
2019-05-11T00:21:53.060Z,10.37
2019-05-11T00:24:22.182Z,10.35
2019-05-11T00:26:51.346Z,10.33
2019-05-11T00:29:20.526Z,10.30
2019-05-11T00:31:49.696Z,10.28
2019-05-11T00:34:18.826Z,10.27
2019-05-11T00:36:48.068Z,10.28
2019-05-11T00:39:17.226Z,10.27
2019-05-11T00:41:46.404Z,10.27
2019-05-11T00:44:15.543Z,10.25
2019-05-11T00:46:44.664Z,10.20
2019-05-11T00:49:13.778Z,8.64
2019-05-11T00:51:42.890Z,10.05
2019-05-11T00:54:12.038Z,10.01
2019-05-11T00:56:41.168Z,10.00
2019-05-11T00:59:21.312Z,10.02
2019-05-11T01:01:41.329Z,10.04
2019-05-11T01:04:10.471Z,10.06
2019-05-11T01:06:39.597Z,10.07
2019-05-11T01:09:08.806Z,10.06
2019-05-11T01:11:37.923Z,10.03
2019-05-11T01:14:07.155Z,10.02
2019-05-11T01:16:36.260Z,10.00
2019-05-11T01:19:05.399Z,9.97
2019-05-11T01:21:34.586Z,9.94
2019-05-11T01:24:03.686Z,9.91
2019-05-11T01:26:32.798Z,9.92
2019-05-11T01:29:01.939Z,9.92
2019-05-11T01:31:31.057Z,9.94
2019-05-11T01:34:00.197Z,8.37
2019-05-11T01:36:29.331Z,9.97
2019-05-11T01:38:58.467Z,9.97
2019-05-11T01:41:27.632Z,9.94
2019-05-11T01:43:56.831Z,9.93
2019-05-11T01:46:25.969Z,9.93
2019-05-11T01:48:55.124Z,9.91
2019-05-11T01:51:24.264Z,9.90
2019-05-11T01:53:53.377Z,9.90
2019-05-11T01:56:22.491Z,9.89
2019-05-11T01:58:51.633Z,9.88
2019-05-11T02:01:20.793Z,9.87
2019-05-11T02:03:49.907Z,9.85
2019-05-11T02:06:19.206Z,9.87
2019-05-11T02:08:48.345Z,9.85
2019-05-11T02:11:17.479Z,9.87
2019-05-11T02:13:46.630Z,9.87
2019-05-11T02:16:15.736Z,9.84
2019-05-11T02:18:44.877Z,9.82
2019-05-11T02:21:14.000Z,9.78
2019-05-11T02:23:43.089Z,9.76
2019-05-11T02:26:12.210Z,9.74
2019-05-11T02:28:41.535Z,9.72
2019-05-11T02:31:10.692Z,9.70
2019-05-11T02:33:39.792Z,9.68
2019-05-11T02:36:08.914Z,9.69
2019-05-11T02:38:38.066Z,9.68
2019-05-11T02:41:07.197Z,9.70
2019-05-11T02:43:36.575Z,9.70
2019-05-11T02:46:05.699Z,9.71
2019-05-11T02:48:34.820Z,9.70
2019-05-11T02:51:04.082Z,9.69
2019-05-11T02:53:34.835Z,9.68
2019-05-11T02:56:04.661Z,9.66
2019-05-11T02:58:33.793Z,9.65
2019-05-11T03:01:02.918Z,9.66
2019-05-11T03:03:32.075Z,9.66
2019-05-11T03:06:01.333Z,9.65
2019-05-11T03:08:30.472Z,9.63
2019-05-11T03:10:59.616Z,9.61
2019-05-11T03:13:28.732Z,9.59
2019-05-11T03:15:57.932Z,9.58
2019-05-11T03:18:27.040Z,9.59
2019-05-11T03:20:56.189Z,9.59
2019-05-11T03:23:25.313Z,9.60
2019-05-11T03:25:54.420Z,9.58
2019-05-11T03:28:23.552Z,9.57
2019-05-11T03:30:52.651Z,9.55
2019-05-11T03:33:21.812Z,9.54
2019-05-11T03:35:50.890Z,9.52
2019-05-11T03:38:19.992Z,9.52
2019-05-11T03:40:49.102Z,9.52
2019-05-11T03:43:18.216Z,9.54
2019-05-11T03:45:47.369Z,9.55
2019-05-11T03:48:16.487Z,9.56
2019-05-11T03:50:45.607Z,9.59
2019-05-11T03:53:14.777Z,9.61
2019-05-11T03:55:43.876Z,9.61
2019-05-11T03:58:13.087Z,8.25
2019-05-11T04:00:42.221Z,9.60
2019-05-11T04:03:11.356Z,9.59
2019-05-11T04:05:40.472Z,9.59
2019-05-11T04:08:09.605Z,9.58
2019-05-11T04:10:38.743Z,9.59
2019-05-11T04:13:07.893Z,9.55
2019-05-11T04:15:37.029Z,9.55
2019-05-11T04:18:06.173Z,9.53
2019-05-11T04:20:35.308Z,9.51
2019-05-11T04:23:04.508Z,9.52
2019-05-11T04:25:33.622Z,9.53
2019-05-11T04:28:02.750Z,9.54
2019-05-11T04:30:31.881Z,9.56
2019-05-11T04:33:01.035Z,9.57
2019-05-11T04:35:30.286Z,9.57
2019-05-11T04:37:59.393Z,9.60
2019-05-11T04:40:28.592Z,9.62
2019-05-11T04:42:57.812Z,9.64
2019-05-11T04:45:26.947Z,9.64
2019-05-11T04:47:56.069Z,9.64
2019-05-11T04:50:25.216Z,9.65
2019-05-11T04:52:54.360Z,9.67
2019-05-11T04:55:23.501Z,9.66
2019-05-11T04:57:52.621Z,9.65
2019-05-11T05:00:21.856Z,9.66
2019-05-11T05:02:51.003Z,9.69
2019-05-11T05:05:20.125Z,9.73
2019-05-11T05:07:50.709Z,9.73
2019-05-11T05:10:22.252Z,9.75
2019-05-11T05:12:52.982Z,9.78
2019-05-11T05:15:21.733Z,9.81
2019-05-11T05:17:50.897Z,9.85
2019-05-11T05:20:20.085Z,9.88
2019-05-11T05:22:49.197Z,9.91
2019-05-11T05:25:18.349Z,9.93
2019-05-11T05:27:47.451Z,9.95
2019-05-11T05:30:17.230Z,9.98
2019-05-11T05:32:46.342Z,10.00
2019-05-11T05:35:15.487Z,10.03
2019-05-11T05:37:44.756Z,10.06
2019-05-11T05:40:13.903Z,10.09
2019-05-11T05:42:43.051Z,10.13
2019-05-11T05:45:12.481Z,10.17
2019-05-11T05:47:41.654Z,10.20
2019-05-11T05:50:11.073Z,10.25
2019-05-11T05:52:40.223Z,10.30
2019-05-11T05:55:09.439Z,10.36
2019-05-11T05:57:38.599Z,10.40
2019-05-11T06:00:09.657Z,10.44
2019-05-11T06:02:38.805Z,10.50
2019-05-11T06:05:08.031Z,10.53
2019-05-11T06:07:37.187Z,10.56
2019-05-11T06:10:06.948Z,10.59
2019-05-11T06:12:36.066Z,10.62
2019-05-11T06:15:05.755Z,10.65
2019-05-11T06:17:34.878Z,10.69
2019-05-11T06:20:04.802Z,10.73
2019-05-11T06:22:33.997Z,10.76
2019-05-11T06:25:03.199Z,10.81
2019-05-11T06:27:32.324Z,10.85
2019-05-11T06:30:01.484Z,10.89
2019-05-11T06:32:30.615Z,10.92
2019-05-11T06:34:59.752Z,10.96
2019-05-11T06:37:28.916Z,11.01
2019-05-11T06:39:58.104Z,11.05
2019-05-11T06:42:27.279Z,11.12
2019-05-11T06:44:56.413Z,11.18
2019-05-11T06:47:25.542Z,11.23
2019-05-11T06:49:54.687Z,11.26
2019-05-11T06:52:23.813Z,11.31
2019-05-11T06:54:52.945Z,9.78
2019-05-11T06:57:22.054Z,11.39
2019-05-11T06:59:51.195Z,11.43
2019-05-11T07:02:20.365Z,11.47
2019-05-11T07:04:49.528Z,11.50
2019-05-11T07:07:18.688Z,11.53
2019-05-11T07:09:47.882Z,11.54
2019-05-11T07:12:17.151Z,11.57
2019-05-11T07:14:46.498Z,11.58
2019-05-11T07:17:15.668Z,11.61
2019-05-11T07:19:47.492Z,11.62
2019-05-11T07:22:15.705Z,11.64
2019-05-11T07:24:44.868Z,11.67
2019-05-11T07:27:14.014Z,11.68
2019-05-11T07:29:43.167Z,11.71
2019-05-11T07:32:21.937Z,11.71
2019-05-11T07:34:48.573Z,11.73
2019-05-11T07:37:18.520Z,11.76
2019-05-11T07:39:48.738Z,11.78
2019-05-11T07:42:18.211Z,11.81
2019-05-11T07:44:48.153Z,11.81
2019-05-11T07:47:18.644Z,11.79
2019-05-11T07:49:48.857Z,11.81
2019-05-11T07:52:18.346Z,11.82
2019-05-11T07:54:52.678Z,11.82
2019-05-11T07:57:18.693Z,11.81
2019-05-11T07:59:48.609Z,11.83
2019-05-11T08:02:18.018Z,11.85
2019-05-11T08:04:48.187Z,11.85
2019-05-11T08:07:18.212Z,11.86
2019-05-11T08:09:48.370Z,11.88
2019-05-11T08:12:19.223Z,11.88
2019-05-11T08:14:57.771Z,11.87
2019-05-11T08:17:19.348Z,11.87
2019-05-11T08:19:48.510Z,11.88
2019-05-11T08:22:22.534Z,11.89
2019-05-11T08:24:48.608Z,11.90
2019-05-11T08:27:18.679Z,11.91
2019-05-11T08:29:48.765Z,11.93
2019-05-11T08:32:18.408Z,11.94
2019-05-11T08:34:49.060Z,11.96
2019-05-11T08:37:18.892Z,11.97
2019-05-11T08:39:48.332Z,12.00
2019-05-11T08:42:18.041Z,12.01
2019-05-11T08:44:48.336Z,12.04
2019-05-11T08:47:17.864Z,12.06
2019-05-11T08:49:48.443Z,12.07
2019-05-11T08:52:18.650Z,12.07
2019-05-11T08:54:48.729Z,12.10
2019-05-11T08:57:18.151Z,12.13
2019-05-11T08:59:48.394Z,12.14
2019-05-11T09:02:18.649Z,12.17
2019-05-11T09:04:48.526Z,12.20
2019-05-11T09:07:18.434Z,12.19
2019-05-11T09:09:48.352Z,12.16
2019-05-11T09:12:18.314Z,12.12
2019-05-11T09:14:47.966Z,12.05
2019-05-11T09:17:18.262Z,12.05
2019-05-11T09:19:48.149Z,11.98
2019-05-11T09:22:18.719Z,11.92
2019-05-11T09:24:48.023Z,11.87
2019-05-11T09:27:18.383Z,11.89
2019-05-11T09:29:48.075Z,11.88
2019-05-11T09:32:17.948Z,11.92
2019-05-11T09:34:48.459Z,11.84
2019-05-11T09:37:18.426Z,11.77
2019-05-11T09:39:47.926Z,11.74
2019-05-11T09:42:17.923Z,11.74
2019-05-11T09:44:48.552Z,11.73
2019-05-11T09:47:18.938Z,11.81
2019-05-11T09:49:50.956Z,11.85
2019-05-11T09:52:19.135Z,11.94
2019-05-11T09:54:48.790Z,12.04
2019-05-11T09:57:18.594Z,12.13
2019-05-11T09:59:47.964Z,12.22
2019-05-11T10:02:20.679Z,12.30
2019-05-11T10:04:48.470Z,12.36
2019-05-11T10:07:18.253Z,12.35
2019-05-11T10:09:47.947Z,12.33
2019-05-11T10:12:18.106Z,12.36
2019-05-11T10:14:48.573Z,12.39
2019-05-11T10:17:18.291Z,12.42
2019-05-11T10:19:49.642Z,11.63
2019-05-11T10:22:18.685Z,12.59
2019-05-11T10:24:47.838Z,12.72
2019-05-11T10:27:18.894Z,12.71
2019-05-11T10:29:48.496Z,12.76
2019-05-11T10:32:18.410Z,12.79
2019-05-11T10:34:47.858Z,12.76
2019-05-11T10:37:17.712Z,12.74
2019-05-11T10:39:48.851Z,12.80
2019-05-11T10:42:18.119Z,12.81
2019-05-11T10:44:47.961Z,12.72
2019-05-11T10:47:18.456Z,12.70
2019-05-11T10:49:48.479Z,12.73
2019-05-11T10:52:18.118Z,12.75
2019-05-11T10:54:47.891Z,12.69
2019-05-11T10:57:18.909Z,12.60
2019-05-11T10:59:48.877Z,12.56
2019-05-11T11:02:18.630Z,12.49
2019-05-11T11:04:48.541Z,12.33
2019-05-11T11:07:19.454Z,12.29
2019-05-11T11:09:49.145Z,12.27
2019-05-11T11:12:18.835Z,12.28
2019-05-11T11:14:48.321Z,12.22
2019-05-11T11:17:19.194Z,12.22
2019-05-11T11:19:48.801Z,12.19
2019-05-11T11:22:35.922Z,12.19
2019-05-11T11:24:48.888Z,12.16
2019-05-11T11:27:18.604Z,12.14
2019-05-11T11:29:47.933Z,12.11
2019-05-11T11:32:18.370Z,12.08
2019-05-11T11:34:48.474Z,12.07
2019-05-11T11:37:17.808Z,11.99
2019-05-11T11:39:47.620Z,11.96
2019-05-11T11:42:18.476Z,11.95
2019-05-11T11:44:48.362Z,11.86
2019-05-11T11:47:21.339Z,11.84
2019-05-11T11:49:48.386Z,11.82
2019-05-11T11:52:18.778Z,11.82
2019-05-11T11:54:48.064Z,11.81
2019-05-11T11:57:18.321Z,11.74
2019-05-11T11:59:48.131Z,11.68
2019-05-11T12:02:19.105Z,11.59
2019-05-11T12:04:48.690Z,11.60
2019-05-11T12:07:18.135Z,11.50
2019-05-11T12:09:48.353Z,11.47
2019-05-11T12:12:18.624Z,11.48
2019-05-11T12:14:48.183Z,11.44
2019-05-11T12:17:18.177Z,11.40
2019-05-11T12:19:47.995Z,11.40
2019-05-11T12:22:18.803Z,10.42
2019-05-11T12:24:48.394Z,11.36
2019-05-11T12:27:18.339Z,11.37
2019-05-11T12:29:47.804Z,11.39
2019-05-11T12:32:23.067Z,11.39
2019-05-11T12:34:52.183Z,11.35
2019-05-11T12:37:22.087Z,11.35
2019-05-11T12:39:51.331Z,11.37
2019-05-11T12:42:20.539Z,11.38
2019-05-11T12:44:49.732Z,11.43
2019-05-11T12:47:24.280Z,11.46
2019-05-11T12:49:49.811Z,11.50
2019-05-11T12:52:18.953Z,11.53
2019-05-11T12:54:48.131Z,11.53
2019-05-11T12:57:18.681Z,11.55
2019-05-11T12:59:48.757Z,11.57
2019-05-11T13:02:19.859Z,11.63
2019-05-11T13:04:49.100Z,11.66
2019-05-11T13:07:19.675Z,11.72
2019-05-11T13:09:49.033Z,11.78
2019-05-11T13:12:18.728Z,11.80
2019-05-11T13:14:48.858Z,11.81
2019-05-11T13:17:18.795Z,11.87
2019-05-11T13:19:49.251Z,11.96
2019-05-11T13:22:18.602Z,12.01
2019-05-11T13:24:48.264Z,12.04
2019-05-11T13:27:18.089Z,12.12
2019-05-11T13:29:48.606Z,12.14
2019-05-11T13:32:18.771Z,12.11
2019-05-11T13:34:48.252Z,12.12
2019-05-11T13:37:18.849Z,12.16
2019-05-11T13:39:51.135Z,12.25
2019-05-11T13:42:23.161Z,12.28
2019-05-11T13:44:51.203Z,12.38
2019-05-11T13:47:23.254Z,12.34
2019-05-11T13:49:52.477Z,12.33
2019-05-11T13:52:21.654Z,12.38
2019-05-11T13:54:50.833Z,12.46
2019-05-11T13:57:20.095Z,12.54
2019-05-11T13:59:49.262Z,12.54
2019-05-11T14:02:18.587Z,12.53
2019-05-11T14:04:48.214Z,12.54
2019-05-11T14:07:18.597Z,12.55
2019-05-11T14:09:48.504Z,12.58
2019-05-11T14:12:18.265Z,12.60
2019-05-11T14:14:48.093Z,12.55
2019-05-11T14:17:18.672Z,12.60
2019-05-11T14:19:49.223Z,12.61
2019-05-11T14:22:18.627Z,12.65
2019-05-11T14:24:48.365Z,12.67
2019-05-11T14:27:18.753Z,12.67
2019-05-11T14:29:48.677Z,12.69
2019-05-11T14:32:28.440Z,12.69
2019-05-11T14:34:57.979Z,12.71
2019-05-11T14:37:28.544Z,12.77
2019-05-11T14:39:58.426Z,12.81
2019-05-11T14:42:28.635Z,12.82
2019-05-11T14:44:58.939Z,12.86
2019-05-11T14:47:28.446Z,12.83
2019-05-11T14:49:57.941Z,12.88
2019-05-11T14:52:28.055Z,12.91
2019-05-11T14:54:58.431Z,12.93
2019-05-11T14:57:27.981Z,12.92
2019-05-11T14:59:58.614Z,12.96
2019-05-11T15:02:48.569Z,12.98
2019-05-11T15:05:18.476Z,13.02
2019-05-11T15:07:48.462Z,13.06
2019-05-11T15:10:19.225Z,13.08
2019-05-11T15:12:48.920Z,13.09
2019-05-11T15:15:18.819Z,13.11
2019-05-11T15:17:51.102Z,13.15
2019-05-11T15:20:20.576Z,13.18
2019-05-11T15:22:49.752Z,13.24
2019-05-11T15:25:20.023Z,13.27
2019-05-11T15:27:49.306Z,13.32
2019-05-11T15:30:19.067Z,13.32
2019-05-11T15:32:49.934Z,13.30
2019-05-11T15:35:19.202Z,13.33
2019-05-11T15:37:48.455Z,13.39
2019-05-11T15:40:18.983Z,13.48
2019-05-11T15:42:48.768Z,13.56
2019-05-11T15:45:38.089Z,13.58
2019-05-11T15:48:08.424Z,13.59
2019-05-11T15:50:40.046Z,13.51
2019-05-11T15:53:08.856Z,13.48
2019-05-11T15:55:41.795Z,13.44
2019-05-11T15:58:08.812Z,13.44
2019-05-11T16:00:40.013Z,13.42
2019-05-11T16:03:08.997Z,13.40
2019-05-11T16:05:38.224Z,13.38
2019-05-11T16:08:08.360Z,13.36
2019-05-11T16:10:38.403Z,13.36
2019-05-11T16:13:09.224Z,13.36
2019-05-11T16:15:38.674Z,13.34
2019-05-11T16:18:08.469Z,13.33
2019-05-11T16:20:37.775Z,13.24
2019-05-11T16:23:06.955Z,13.24
2019-05-11T16:25:38.246Z,13.21
2019-05-11T16:28:07.799Z,13.20
2019-05-11T16:30:37.963Z,13.15
2019-05-11T16:33:08.758Z,13.11
2019-05-11T16:35:38.376Z,13.11
2019-05-11T16:38:07.743Z,13.08
2019-05-11T16:40:38.724Z,13.02
2019-05-11T16:43:08.580Z,13.01
2019-05-11T16:45:37.741Z,12.99
2019-05-11T16:48:07.981Z,12.99
2019-05-11T16:50:38.350Z,12.99
2019-05-11T16:53:07.598Z,12.97
2019-05-11T16:55:37.708Z,12.98
2019-05-11T16:58:08.254Z,13.00
2019-05-11T17:00:41.931Z,12.98
2019-05-11T17:03:08.423Z,12.96
2019-05-11T17:05:38.322Z,12.98
2019-05-11T17:08:08.081Z,12.98
2019-05-11T17:10:37.534Z,13.02
2019-05-11T17:13:08.579Z,13.07
2019-05-11T17:15:37.575Z,13.17
2019-05-11T17:18:08.103Z,13.22
2019-05-11T17:20:37.303Z,13.26
2019-05-11T17:23:06.543Z,13.32
2019-05-11T17:25:37.801Z,13.35
2019-05-11T17:28:09.415Z,13.41
2019-05-11T17:30:38.648Z,13.40
2019-05-11T17:33:08.669Z,13.36
2019-05-11T17:35:38.141Z,13.39
2019-05-11T17:38:07.995Z,13.34
2019-05-11T17:40:37.834Z,13.34
2019-05-11T17:43:09.089Z,13.27
2019-05-11T17:45:37.990Z,13.24
2019-05-11T17:48:08.470Z,13.21
2019-05-11T17:50:38.302Z,13.14
2019-05-11T17:53:07.650Z,13.10
2019-05-11T17:55:38.399Z,13.02
2019-05-11T17:58:08.696Z,13.01
2019-05-11T18:00:39.206Z,12.95
2019-05-11T18:03:11.426Z,12.90
2019-05-11T18:05:39.408Z,12.88
2019-05-11T18:08:08.829Z,12.87
2019-05-11T18:10:38.553Z,12.87
2019-05-11T18:13:07.706Z,12.83
2019-05-11T18:15:38.067Z,12.81
2019-05-11T18:18:09.456Z,12.77
2019-05-11T18:20:38.269Z,12.69
2019-05-11T18:23:08.255Z,12.69
2019-05-11T18:25:39.045Z,12.67
2019-05-11T18:28:08.423Z,12.60
2019-05-11T18:30:38.758Z,12.58
2019-05-11T18:33:08.449Z,12.52
2019-05-11T18:35:37.791Z,12.47
2019-05-11T18:38:08.560Z,12.41
2019-05-11T18:40:38.329Z,12.37
2019-05-11T18:43:08.567Z,12.34
2019-05-11T18:45:38.398Z,12.29
2019-05-11T18:48:08.134Z,12.22
2019-05-11T18:50:38.511Z,12.18
2019-05-11T18:53:09.263Z,12.14
2019-05-11T18:55:38.568Z,12.10
2019-05-11T18:58:07.709Z,12.02
2019-05-11T19:00:38.205Z,11.99
2019-05-11T19:03:08.782Z,11.96
2019-05-11T19:05:38.705Z,11.93
2019-05-11T19:08:07.936Z,11.88
2019-05-11T19:10:38.358Z,11.83
2019-05-11T19:13:09.732Z,11.76
2019-05-11T19:15:39.005Z,11.71
2019-05-11T19:18:08.094Z,11.68
2019-05-11T19:20:45.119Z,11.61
2019-05-11T19:23:08.421Z,11.57
2019-05-11T19:25:37.662Z,11.52
2019-05-11T19:28:08.571Z,11.46
2019-05-11T19:30:38.446Z,11.38
2019-05-11T19:33:10.765Z,11.35
2019-05-11T19:35:38.513Z,11.31
2019-05-11T19:38:08.664Z,11.30
2019-05-11T19:40:38.651Z,11.27
2019-05-11T19:43:08.355Z,11.23
2019-05-11T19:45:38.554Z,11.16
2019-05-11T19:48:08.487Z,11.14
2019-05-11T19:50:38.201Z,11.08
2019-05-11T19:53:08.663Z,11.02
2019-05-11T19:55:37.788Z,10.98
2019-05-11T19:58:06.966Z,10.94
2019-05-11T20:00:38.005Z,10.90
2019-05-11T20:03:09.170Z,10.86
2019-05-11T20:05:38.115Z,10.82
2019-05-11T20:08:07.942Z,10.76
2019-05-11T20:10:38.322Z,10.74
2019-05-11T20:13:08.212Z,10.70
2019-05-11T20:15:38.113Z,10.68
2019-05-11T20:18:07.948Z,10.64
2019-05-11T20:20:37.718Z,10.58
2019-05-11T20:23:07.798Z,10.56
2019-05-11T20:25:37.991Z,10.52
2019-05-11T20:28:08.145Z,10.48
2019-05-11T20:30:37.350Z,10.43
2019-05-11T20:33:08.574Z,10.38
2019-05-11T20:35:38.309Z,10.35
2019-05-11T20:38:08.749Z,10.31
2019-05-11T20:40:37.959Z,10.28
2019-05-11T20:43:07.990Z,10.22
2019-05-11T20:45:37.790Z,10.19
2019-05-11T20:48:07.957Z,10.19
2019-05-11T20:50:37.851Z,10.13
2019-05-11T20:53:08.592Z,10.15
2019-05-11T20:55:37.989Z,10.11
2019-05-11T20:58:08.623Z,10.07
2019-05-11T21:00:38.432Z,10.01
2019-05-11T21:03:08.043Z,9.99
2019-05-11T21:05:37.191Z,9.96
2019-05-11T21:08:08.410Z,9.91
2019-05-11T21:10:39.285Z,9.84
2019-05-11T21:13:08.839Z,9.82
2019-05-11T21:15:38.664Z,9.78
2019-05-11T21:18:08.030Z,9.73
2019-05-11T21:20:38.081Z,9.69
2019-05-11T21:23:08.252Z,9.62
2019-05-11T21:25:37.865Z,9.57
2019-05-11T21:28:08.567Z,9.55
2019-05-11T21:30:40.013Z,9.54
2019-05-11T21:33:08.822Z,9.55
2019-05-11T21:35:38.599Z,9.48
2019-05-11T21:38:07.881Z,9.44
2019-05-11T21:40:38.080Z,9.40
2019-05-11T21:43:08.693Z,9.41
2019-05-11T21:45:40.480Z,9.39
2019-05-11T21:48:08.980Z,9.35
2019-05-11T21:50:38.377Z,9.29
2019-05-11T21:53:10.247Z,9.28
2019-05-11T21:55:38.448Z,9.28
2019-05-11T21:58:09.062Z,9.26
2019-05-11T22:00:38.794Z,9.24
2019-05-11T22:03:10.321Z,9.20
2019-05-11T22:05:39.034Z,9.11
2019-05-11T22:08:08.692Z,9.13
2019-05-11T22:10:38.564Z,9.09
2019-05-11T22:13:07.812Z,9.08
2019-05-11T22:15:38.579Z,9.07
2019-05-11T22:18:08.166Z,9.04
2019-05-11T22:20:40.520Z,9.00
2019-05-11T22:23:08.582Z,9.01
2019-05-11T22:25:38.283Z,9.04
2019-05-11T22:28:08.515Z,8.99
2019-05-11T22:30:39.315Z,8.94
2019-05-11T22:33:09.016Z,8.97
2019-05-11T22:35:38.550Z,8.94
2019-05-11T22:38:08.465Z,8.95
2019-05-11T22:40:38.399Z,8.91
2019-05-11T22:43:09.347Z,8.88
2019-05-11T22:45:38.661Z,8.86
2019-05-11T22:48:08.143Z,8.87
2019-05-11T22:50:38.145Z,8.84
2019-05-11T22:53:08.805Z,8.82
2019-05-11T22:55:38.542Z,8.77
2019-05-11T22:58:08.572Z,8.75
2019-05-11T23:00:45.485Z,8.73
2019-05-11T23:03:14.854Z,8.68
2019-05-11T23:05:43.970Z,8.63
2019-05-11T23:08:13.124Z,8.57
2019-05-11T23:10:42.254Z,8.57
2019-05-11T23:13:11.806Z,8.50
2019-05-11T23:15:40.970Z,8.47
2019-05-11T23:18:10.062Z,8.45
2019-05-11T23:20:39.239Z,8.46
2019-05-11T23:23:08.920Z,8.43
2019-05-11T23:25:39.257Z,8.42
2019-05-11T23:28:08.615Z,8.39
2019-05-11T23:30:38.997Z,8.37
2019-05-11T23:33:08.303Z,8.34
2019-05-11T23:35:38.261Z,8.33
2019-05-11T23:38:07.643Z,8.31
2019-05-11T23:40:37.972Z,8.28
2019-05-11T23:43:08.654Z,8.27
2019-05-11T23:45:38.335Z,8.25
2019-05-11T23:48:07.603Z,8.22
2019-05-11T23:50:38.688Z,8.20
2019-05-11T23:53:10.256Z,8.18
2019-05-11T23:55:38.581Z,8.15
2019-05-11T23:58:08.251Z,8.10
